createdAt,value
2023-03-07T00:01:34.558Z,75.25
2023-03-07T00:04:01.896Z,75.46
2023-03-07T00:06:29.322Z,74.80
2023-03-07T00:09:01.990Z,75.34
2023-03-07T00:11:30.056Z,74.86
2023-03-07T00:13:57.352Z,74.74
2023-03-07T00:16:25.820Z,74.75
2023-03-07T00:18:54.451Z,75.15
2023-03-07T00:21:23.112Z,75.03
2023-03-07T00:23:52.861Z,74.97
2023-03-07T00:26:23.419Z,74.96
2023-03-07T00:28:52.717Z,74.17
2023-03-07T00:31:21.111Z,74.17
2023-03-07T00:33:48.325Z,73.85
2023-03-07T00:36:19.722Z,72.77
2023-03-07T00:38:47.912Z,72.09
2023-03-07T00:41:33.006Z,71.46
2023-03-07T00:44:00.104Z,70.96
2023-03-07T00:46:27.356Z,70.59
2023-03-07T00:48:54.935Z,70.57
2023-03-07T00:51:23.874Z,70.17
2023-03-07T00:53:51.741Z,69.63
2023-03-07T00:56:25.218Z,70.39
2023-03-07T00:58:53.160Z,70.02
2023-03-07T01:01:24.242Z,70.18
2023-03-07T01:03:54.622Z,69.88
2023-03-07T01:06:26.201Z,69.85
2023-03-07T01:08:55.676Z,70.18
2023-03-07T01:11:22.957Z,69.97
2023-03-07T01:13:50.111Z,70.02
2023-03-07T01:16:39.849Z,70.33
2023-03-07T01:19:12.472Z,70.58
2023-03-07T01:21:42.928Z,70.85
2023-03-07T01:24:15.176Z,70.82
2023-03-07T01:26:43.010Z,70.58
2023-03-07T01:29:11.821Z,70.63
2023-03-07T01:31:38.916Z,71.31
2023-03-07T01:34:06.553Z,71.16
2023-03-07T01:36:35.947Z,70.89
2023-03-07T01:39:17.171Z,70.91
2023-03-07T01:41:45.728Z,70.93
2023-03-07T01:44:25.939Z,70.90
2023-03-07T01:47:00.709Z,71.22
2023-03-07T01:49:42.811Z,71.34
2023-03-07T01:52:09.851Z,71.15
2023-03-07T01:54:42.831Z,71.33
2023-03-07T01:57:10.594Z,71.15
2023-03-07T01:59:45.716Z,71.49
2023-03-07T02:02:18.007Z,71.74
2023-03-07T02:04:57.250Z,71.31
2023-03-07T02:07:28.523Z,71.60
2023-03-07T02:09:57.192Z,71.43
2023-03-07T02:12:24.448Z,71.70
2023-03-07T02:14:52.387Z,71.98
2023-03-07T02:17:19.902Z,71.64
2023-03-07T02:20:05.803Z,71.54
2023-03-07T02:22:32.922Z,71.82
2023-03-07T02:25:14.484Z,71.88
2023-03-07T02:27:42.973Z,71.81
2023-03-07T02:30:11.033Z,72.10
2023-03-07T02:32:38.258Z,72.22
2023-03-07T02:35:23.436Z,72.38
2023-03-07T02:37:57.539Z,72.64
2023-03-07T02:40:29.578Z,72.73
2023-03-07T02:43:01.333Z,72.96
2023-03-07T02:45:28.431Z,72.52
2023-03-07T02:47:55.461Z,72.56
2023-03-07T02:50:22.487Z,72.75
2023-03-07T02:52:50.012Z,73.00
2023-03-07T02:55:17.174Z,73.25
2023-03-07T02:57:44.169Z,73.11
2023-03-07T03:00:12.561Z,73.21
2023-03-07T03:02:39.654Z,73.37
2023-03-07T03:05:07.649Z,73.58
2023-03-07T03:07:34.689Z,73.80
2023-03-07T03:10:01.777Z,74.07
2023-03-07T03:12:28.775Z,74.25
2023-03-07T03:14:55.802Z,74.27
2023-03-07T03:17:24.025Z,74.86
2023-03-07T03:19:51.112Z,74.91
2023-03-07T03:22:18.120Z,75.14
2023-03-07T03:24:45.196Z,75.57
2023-03-07T03:27:12.257Z,76.16
2023-03-07T03:29:39.561Z,76.59
2023-03-07T03:32:07.230Z,77.32
2023-03-07T03:34:34.305Z,77.12
2023-03-07T03:37:01.361Z,77.68
2023-03-07T03:39:29.166Z,77.95
2023-03-07T03:41:57.135Z,77.53
2023-03-07T03:44:24.404Z,78.07
2023-03-07T03:46:52.086Z,77.98
2023-03-07T03:49:19.790Z,78.09
2023-03-07T03:51:46.848Z,78.25
2023-03-07T03:54:13.874Z,78.56
2023-03-07T03:56:41.200Z,78.72
2023-03-07T03:59:08.216Z,78.41
2023-03-07T04:01:35.410Z,78.32
2023-03-07T04:04:02.573Z,78.72
2023-03-07T04:06:33.260Z,79.31
2023-03-07T04:09:00.941Z,79.20
2023-03-07T04:11:27.957Z,79.26
2023-03-07T04:13:55.069Z,78.78
2023-03-07T04:16:25.269Z,78.84
2023-03-07T04:18:52.979Z,78.95
2023-03-07T04:21:21.407Z,78.70
2023-03-07T04:23:50.457Z,78.55
2023-03-07T04:26:17.575Z,78.79
2023-03-07T04:28:49.458Z,79.00
2023-03-07T04:31:23.613Z,78.68
2023-03-07T04:33:53.092Z,78.96
2023-03-07T04:36:20.940Z,78.84
2023-03-07T04:38:49.682Z,78.74
2023-03-07T04:41:20.096Z,78.84
2023-03-07T04:43:47.547Z,78.74
2023-03-07T04:46:16.925Z,78.55
2023-03-07T04:48:44.917Z,78.73
2023-03-07T04:51:12.570Z,78.96
2023-03-07T04:53:39.760Z,78.88
2023-03-07T04:56:08.462Z,78.93
2023-03-07T04:58:36.919Z,78.92
2023-03-07T05:01:05.785Z,79.21
2023-03-07T05:03:34.140Z,79.19
2023-03-07T05:06:08.075Z,79.54
2023-03-07T05:08:35.682Z,79.66
2023-03-07T05:11:03.201Z,79.82
2023-03-07T05:13:30.638Z,79.68
2023-03-07T05:15:59.405Z,79.86
2023-03-07T05:18:27.415Z,79.85
2023-03-07T05:20:54.446Z,80.10
2023-03-07T05:23:21.976Z,79.82
2023-03-07T05:25:49.026Z,79.88
2023-03-07T05:28:17.077Z,79.40
2023-03-07T05:30:46.345Z,79.44
2023-03-07T05:33:14.958Z,79.51
2023-03-07T05:35:42.208Z,79.56
2023-03-07T05:38:09.597Z,79.93
2023-03-07T05:40:36.671Z,80.13
2023-03-07T05:43:04.027Z,80.45
2023-03-07T05:45:31.166Z,80.59
2023-03-07T05:47:58.233Z,80.52
2023-03-07T05:50:25.453Z,80.61
2023-03-07T05:52:53.145Z,80.44
2023-03-07T05:55:20.532Z,80.66
2023-03-07T05:57:47.609Z,80.73
2023-03-07T06:00:16.043Z,80.94
2023-03-07T06:02:43.365Z,80.91
2023-03-07T06:05:10.534Z,80.99
2023-03-07T06:07:37.531Z,80.70
2023-03-07T06:10:05.110Z,81.21
2023-03-07T06:12:32.110Z,80.90
2023-03-07T06:14:59.147Z,80.68
2023-03-07T06:17:26.151Z,80.47
2023-03-07T06:19:53.234Z,80.06
2023-03-07T06:22:20.436Z,79.64
2023-03-07T06:24:47.503Z,79.31
2023-03-07T06:27:14.517Z,79.45
2023-03-07T06:29:41.608Z,79.02
2023-03-07T06:32:08.655Z,78.76
2023-03-07T06:34:36.801Z,78.07
2023-03-07T06:37:04.023Z,78.59
2023-03-07T06:39:31.560Z,78.17
2023-03-07T06:41:58.720Z,77.92
2023-03-07T06:44:25.820Z,77.24
2023-03-07T06:46:52.863Z,76.76
2023-03-07T06:49:20.002Z,76.96
2023-03-07T06:51:47.042Z,76.92
2023-03-07T06:54:14.163Z,76.61
2023-03-07T06:56:43.028Z,76.02
2023-03-07T06:59:11.283Z,75.65
2023-03-07T07:01:38.561Z,74.95
2023-03-07T07:04:05.818Z,74.14
2023-03-07T07:06:32.931Z,73.75
2023-03-07T07:09:00.186Z,72.94
2023-03-07T07:11:27.808Z,71.51
2023-03-07T07:13:54.874Z,70.79
2023-03-07T07:16:21.940Z,70.92
2023-03-07T07:18:54.520Z,70.88
2023-03-07T07:21:21.677Z,70.25
2023-03-07T07:23:48.780Z,68.53
2023-03-07T07:26:15.904Z,67.00
2023-03-07T07:28:42.915Z,64.14
2023-03-07T07:31:10.062Z,62.49
2023-03-07T07:33:37.122Z,59.34
2023-03-07T07:36:04.657Z,56.75
2023-03-07T07:38:31.749Z,57.17
2023-03-07T07:40:58.933Z,56.04
2023-03-07T07:43:26.137Z,55.34
2023-03-07T07:45:53.151Z,54.01
2023-03-07T07:48:20.860Z,50.19
2023-03-07T07:50:48.010Z,46.16
2023-03-07T07:53:17.139Z,44.64
2023-03-07T07:55:45.758Z,44.12
2023-03-07T07:58:12.779Z,45.20
2023-03-07T08:00:39.802Z,45.98
2023-03-07T08:03:07.251Z,46.42
2023-03-07T08:05:34.378Z,44.25
2023-03-07T08:08:01.384Z,42.47
2023-03-07T08:10:28.434Z,41.01
2023-03-07T08:12:55.578Z,39.70
2023-03-07T08:15:22.678Z,39.09
2023-03-07T08:17:51.351Z,38.25
2023-03-07T08:20:22.396Z,38.00
2023-03-07T08:22:50.786Z,37.27
2023-03-07T08:25:22.503Z,36.39
2023-03-07T08:27:54.893Z,36.33
2023-03-07T08:30:28.487Z,34.89
2023-03-07T08:32:56.943Z,34.34
2023-03-07T08:35:25.446Z,35.14
2023-03-07T08:38:00.759Z,34.01
2023-03-07T08:40:32.163Z,34.75
2023-03-07T08:42:59.955Z,34.64
2023-03-07T08:45:27.192Z,34.55
2023-03-07T08:47:55.924Z,33.98
2023-03-07T08:50:26.654Z,33.51
2023-03-07T08:52:54.102Z,32.85
2023-03-07T08:55:21.254Z,32.52
2023-03-07T08:57:48.260Z,32.21
2023-03-07T09:00:16.020Z,31.98
2023-03-07T09:02:43.269Z,31.23
2023-03-07T09:05:10.870Z,31.05
2023-03-07T09:07:37.895Z,30.35
2023-03-07T09:10:05.959Z,30.22
2023-03-07T09:12:34.726Z,30.76
2023-03-07T09:15:01.760Z,30.90
2023-03-07T09:17:28.823Z,31.02
2023-03-07T09:19:56.608Z,31.14
2023-03-07T09:22:23.612Z,30.94
2023-03-07T09:24:50.636Z,30.51
2023-03-07T09:27:17.644Z,30.37
2023-03-07T09:29:45.043Z,30.44
2023-03-07T09:32:12.215Z,30.22
2023-03-07T09:34:39.424Z,29.91
2023-03-07T09:37:06.484Z,29.03
2023-03-07T09:39:33.823Z,29.40
2023-03-07T09:42:35.555Z,29.18
2023-03-07T09:45:27.478Z,29.47
2023-03-07T09:48:40.862Z,29.50
2023-03-07T09:51:27.320Z,29.18
2023-03-07T09:54:01.500Z,29.43
2023-03-07T09:56:38.351Z,29.26
2023-03-07T09:59:35.416Z,29.56
2023-03-07T10:02:12.978Z,29.01
2023-03-07T10:04:56.377Z,29.03
2023-03-07T10:07:28.089Z,29.30
2023-03-07T10:10:01.703Z,29.23
2023-03-07T10:13:02.407Z,29.74
2023-03-07T10:15:52.347Z,29.78
2023-03-07T10:18:54.247Z,31.96
2023-03-07T10:21:59.433Z,33.32
2023-03-07T10:24:48.756Z,34.09
2023-03-07T10:27:16.414Z,35.02
2023-03-07T10:29:50.895Z,36.59
2023-03-07T10:32:36.231Z,37.99
2023-03-07T10:35:12.304Z,38.63
2023-03-07T10:38:10.851Z,39.45
2023-03-07T10:40:57.825Z,39.77
2023-03-07T10:43:30.006Z,39.89
2023-03-07T10:46:25.133Z,40.55
2023-03-07T10:49:09.973Z,41.38
2023-03-07T10:52:24.491Z,42.35
2023-03-07T10:54:51.487Z,43.21
2023-03-07T10:57:26.273Z,44.06
2023-03-07T10:59:53.324Z,44.78
2023-03-07T11:02:37.263Z,44.72
2023-03-07T11:05:32.709Z,44.76
2023-03-07T11:08:00.756Z,44.62
2023-03-07T11:10:40.241Z,44.36
2023-03-07T11:13:22.361Z,44.30
2023-03-07T11:15:49.867Z,43.74
2023-03-07T11:18:41.308Z,43.82
2023-03-07T11:21:32.690Z,43.49
2023-03-07T11:24:05.806Z,43.66
2023-03-07T11:26:40.785Z,44.01
2023-03-07T11:29:11.555Z,44.08
2023-03-07T11:31:52.776Z,44.47
2023-03-07T11:34:52.494Z,44.89
2023-03-07T11:38:01.780Z,44.90
2023-03-07T11:41:09.944Z,45.54
2023-03-07T11:44:16.667Z,45.37
2023-03-07T11:47:08.636Z,45.69
2023-03-07T11:50:06.574Z,46.31
2023-03-07T11:53:16.507Z,46.37
2023-03-07T11:56:15.163Z,46.85
2023-03-07T11:59:09.921Z,46.41
2023-03-07T12:01:55.963Z,46.28
2023-03-07T12:04:47.157Z,46.74
2023-03-07T12:07:39.171Z,46.84
2023-03-07T12:10:38.532Z,47.57
2023-03-07T12:13:31.668Z,47.42
2023-03-07T12:16:13.944Z,47.26
2023-03-07T12:19:26.055Z,46.82
2023-03-07T12:22:27.375Z,46.04
2023-03-07T12:25:24.790Z,46.07
2023-03-07T12:28:21.380Z,46.13
2023-03-07T12:31:29.145Z,46.50
2023-03-07T12:34:19.371Z,46.35
2023-03-07T12:36:49.121Z,46.48
2023-03-07T12:39:32.298Z,46.45
2023-03-07T12:42:33.056Z,46.47
2023-03-07T12:45:18.807Z,46.84
2023-03-07T12:47:57.865Z,46.60
2023-03-07T12:50:46.470Z,46.27
2023-03-07T12:53:48.272Z,46.63
2023-03-07T12:56:57.126Z,46.59
2023-03-07T12:59:24.806Z,47.01
2023-03-07T13:02:23.432Z,46.88
2023-03-07T13:04:50.618Z,47.12
2023-03-07T13:07:32.313Z,47.67
2023-03-07T13:10:04.009Z,47.58
2023-03-07T13:12:36.232Z,47.88
2023-03-07T13:15:23.977Z,48.04
2023-03-07T13:17:50.841Z,48.28
2023-03-07T13:20:43.538Z,48.26
2023-03-07T13:23:25.955Z,48.29
2023-03-07T13:26:01.714Z,48.89
2023-03-07T13:28:46.862Z,49.35
2023-03-07T13:31:16.702Z,49.12
2023-03-07T13:33:44.171Z,49.51
2023-03-07T13:36:38.844Z,50.04
2023-03-07T13:39:38.660Z,49.88
2023-03-07T13:42:26.885Z,50.75
2023-03-07T13:44:55.037Z,51.18
2023-03-07T13:47:44.373Z,51.46
2023-03-07T13:50:35.792Z,51.90
2023-03-07T13:53:16.431Z,51.87
2023-03-07T13:55:48.613Z,52.05
2023-03-07T13:58:43.383Z,52.54
2023-03-07T14:01:49.468Z,52.78
2023-03-07T14:04:38.449Z,52.71
2023-03-07T14:07:21.376Z,52.70
2023-03-07T14:09:57.267Z,52.78
2023-03-07T14:12:56.810Z,53.08
2023-03-07T14:15:45.082Z,53.46
2023-03-07T14:18:17.531Z,53.19
2023-03-07T14:21:12.652Z,53.45
2023-03-07T14:24:23.378Z,53.66
2023-03-07T14:26:56.806Z,53.94
2023-03-07T14:29:29.792Z,53.96
2023-03-07T14:32:01.002Z,53.93
2023-03-07T14:34:34.885Z,53.86
2023-03-07T14:37:07.577Z,53.75
2023-03-07T14:39:51.080Z,53.93
2023-03-07T14:42:28.811Z,53.90
2023-03-07T14:45:26.495Z,53.66
2023-03-07T14:48:42.607Z,53.62
2023-03-07T14:51:20.737Z,53.46
2023-03-07T14:53:49.445Z,53.33
2023-03-07T14:56:32.210Z,53.22
2023-03-07T14:59:03.044Z,53.31
2023-03-07T15:01:36.987Z,52.99
2023-03-07T15:04:22.365Z,52.60
2023-03-07T15:07:04.804Z,52.55
2023-03-07T15:09:33.978Z,52.47
2023-03-07T15:12:28.211Z,52.51
2023-03-07T15:14:59.990Z,52.48
2023-03-07T15:17:38.213Z,52.42
2023-03-07T15:20:21.023Z,52.39
2023-03-07T15:22:48.207Z,52.18
2023-03-07T15:25:24.618Z,52.53
2023-03-07T15:28:16.812Z,52.32
2023-03-07T15:30:53.534Z,52.40
2023-03-07T15:33:20.669Z,52.22
2023-03-07T15:36:09.249Z,52.26
2023-03-07T15:38:36.709Z,59.54
2023-03-07T15:41:26.312Z,57.40
2023-03-07T15:44:18.521Z,55.74
2023-03-07T15:46:55.361Z,53.76
2023-03-07T15:49:37.125Z,51.78
2023-03-07T15:52:05.132Z,50.99
2023-03-07T15:54:40.549Z,45.51
2023-03-07T15:57:24.655Z,47.16
2023-03-07T16:00:07.020Z,48.10
2023-03-07T16:02:43.732Z,48.61
2023-03-07T16:05:19.928Z,49.20
2023-03-07T16:07:47.623Z,49.31
2023-03-07T16:10:14.957Z,49.40
2023-03-07T16:12:46.452Z,49.74
2023-03-07T16:15:16.270Z,49.96
2023-03-07T16:17:44.103Z,49.97
2023-03-07T16:20:17.689Z,50.24
2023-03-07T16:22:44.896Z,50.22
2023-03-07T16:25:11.913Z,50.55
2023-03-07T16:27:40.899Z,50.47
2023-03-07T16:30:15.783Z,50.90
2023-03-07T16:32:43.290Z,50.93
2023-03-07T16:35:36.828Z,51.16
2023-03-07T16:38:04.076Z,51.18
2023-03-07T16:40:32.472Z,51.53
2023-03-07T16:42:59.728Z,51.50
2023-03-07T16:45:32.377Z,51.61
2023-03-07T16:48:02.560Z,51.74
2023-03-07T16:50:33.436Z,51.88
2023-03-07T16:53:00.709Z,51.85
2023-03-07T16:55:31.436Z,52.22
2023-03-07T16:58:02.252Z,52.45
2023-03-07T17:00:29.558Z,52.49
2023-03-07T17:03:00.465Z,52.87
2023-03-07T17:05:29.951Z,52.99
2023-03-07T17:07:58.740Z,53.34
2023-03-07T17:10:27.624Z,53.13
2023-03-07T17:12:57.485Z,53.29
2023-03-07T17:15:30.469Z,53.52
2023-03-07T17:17:59.368Z,53.35
2023-03-07T17:20:27.516Z,53.38
2023-03-07T17:22:54.731Z,52.96
2023-03-07T17:25:22.944Z,53.46
2023-03-07T17:28:14.020Z,53.51
2023-03-07T17:30:44.968Z,53.59
2023-03-07T17:33:12.435Z,53.67
2023-03-07T17:35:39.604Z,53.77
2023-03-07T17:38:07.005Z,53.70
2023-03-07T17:40:34.241Z,53.72
2023-03-07T17:43:01.490Z,53.35
2023-03-07T17:45:28.586Z,52.51
2023-03-07T17:47:56.333Z,51.88
2023-03-07T17:50:24.025Z,52.41
2023-03-07T17:52:53.934Z,52.62
2023-03-07T17:55:22.479Z,52.47
2023-03-07T17:57:49.541Z,52.74
2023-03-07T18:00:20.579Z,52.75
2023-03-07T18:02:47.910Z,52.89
2023-03-07T18:05:14.990Z,53.01
2023-03-07T18:07:42.414Z,52.99
2023-03-07T18:10:11.771Z,53.02
2023-03-07T18:12:39.612Z,53.28
2023-03-07T18:15:15.309Z,53.39
2023-03-07T18:17:48.249Z,53.34
2023-03-07T18:20:20.654Z,53.01
2023-03-07T18:22:48.642Z,53.28
2023-03-07T18:25:17.936Z,53.45
2023-03-07T18:27:45.203Z,53.70
2023-03-07T18:30:14.137Z,53.78
2023-03-07T18:32:41.395Z,53.84
2023-03-07T18:35:09.098Z,54.22
2023-03-07T18:37:36.630Z,54.15
2023-03-07T18:40:04.646Z,54.44
2023-03-07T18:42:31.681Z,54.47
2023-03-07T18:44:58.757Z,54.55
2023-03-07T18:47:25.837Z,54.95
2023-03-07T18:49:52.870Z,55.18
2023-03-07T18:52:19.940Z,55.08
2023-03-07T18:54:49.080Z,55.30
2023-03-07T18:57:16.254Z,55.34
2023-03-07T18:59:43.400Z,55.75
2023-03-07T19:02:10.781Z,56.29
2023-03-07T19:04:37.915Z,56.67
2023-03-07T19:07:04.958Z,56.70
2023-03-07T19:09:32.096Z,56.91
2023-03-07T19:11:59.329Z,57.15
2023-03-07T19:14:26.500Z,57.42
2023-03-07T19:16:53.777Z,57.56
2023-03-07T19:19:21.048Z,57.76
2023-03-07T19:21:48.059Z,57.87
2023-03-07T19:24:15.260Z,58.37
2023-03-07T19:26:43.376Z,58.74
2023-03-07T19:29:12.231Z,59.29
2023-03-07T19:31:40.992Z,59.61
2023-03-07T19:34:08.878Z,59.65
2023-03-07T19:36:37.370Z,60.87
2023-03-07T19:39:05.688Z,61.07
2023-03-07T19:41:32.891Z,61.95
2023-03-07T19:44:01.201Z,62.21
2023-03-07T19:46:28.490Z,62.76
2023-03-07T19:48:56.005Z,63.83
2023-03-07T19:51:26.358Z,63.96
2023-03-07T19:53:57.158Z,65.38
2023-03-07T19:56:30.301Z,66.10
2023-03-07T19:59:00.189Z,67.22
2023-03-07T20:01:29.725Z,67.98
2023-03-07T20:03:57.288Z,68.05
2023-03-07T20:06:30.919Z,68.67
2023-03-07T20:08:59.673Z,68.54
2023-03-07T20:11:35.736Z,69.28
2023-03-07T20:14:05.354Z,69.27
2023-03-07T20:16:34.206Z,69.09
2023-03-07T20:19:05.337Z,68.60
2023-03-07T20:21:34.150Z,68.27
2023-03-07T20:24:01.250Z,67.73
2023-03-07T20:26:37.748Z,67.59
2023-03-07T20:29:08.000Z,67.49
2023-03-07T20:31:36.334Z,66.87
2023-03-07T20:34:03.585Z,66.35
2023-03-07T20:36:36.350Z,66.55
2023-03-07T20:39:08.644Z,66.47
2023-03-07T20:41:35.939Z,66.40
2023-03-07T20:44:06.400Z,66.95
2023-03-07T20:46:35.448Z,66.96
2023-03-07T20:49:03.259Z,67.50
2023-03-07T20:51:34.036Z,67.92
2023-03-07T20:54:13.242Z,68.48
2023-03-07T20:56:42.004Z,67.97
2023-03-07T20:59:12.358Z,68.09
2023-03-07T21:01:39.764Z,68.07
2023-03-07T21:04:11.482Z,68.02
2023-03-07T21:06:43.924Z,68.07
2023-03-07T21:09:13.930Z,68.57
2023-03-07T21:11:45.348Z,68.60
2023-03-07T21:14:14.483Z,68.79
2023-03-07T21:16:43.128Z,69.11
2023-03-07T21:19:11.634Z,69.26
2023-03-07T21:21:39.702Z,69.28
2023-03-07T21:24:07.431Z,69.79
2023-03-07T21:26:36.452Z,69.69
2023-03-07T21:29:04.940Z,69.76
2023-03-07T21:31:34.870Z,70.10
2023-03-07T21:34:06.241Z,70.51
2023-03-07T21:36:34.183Z,70.95
2023-03-07T21:39:04.239Z,71.47
2023-03-07T21:41:31.453Z,71.88
2023-03-07T21:43:59.254Z,72.75
2023-03-07T21:46:26.721Z,72.86
2023-03-07T21:48:54.255Z,73.41
2023-03-07T21:51:21.837Z,74.07
2023-03-07T21:53:48.897Z,74.45
2023-03-07T21:56:17.849Z,74.95
2023-03-07T21:58:49.220Z,75.08
2023-03-07T22:01:26.524Z,74.98
2023-03-07T22:03:58.646Z,75.19
2023-03-07T22:06:26.836Z,75.60
2023-03-07T22:08:54.238Z,75.27
2023-03-07T22:11:21.554Z,75.66
2023-03-07T22:13:48.602Z,76.97
2023-03-07T22:16:21.380Z,77.39
2023-03-07T22:18:56.065Z,77.60
2023-03-07T22:21:27.826Z,76.84
2023-03-07T22:23:58.007Z,76.40
2023-03-07T22:26:25.822Z,75.11
2023-03-07T22:28:53.855Z,74.66
2023-03-07T22:31:21.102Z,73.73
2023-03-07T22:33:48.521Z,72.62
2023-03-07T22:36:15.847Z,72.52
2023-03-07T22:38:43.746Z,71.95
2023-03-07T22:41:15.708Z,72.21
2023-03-07T22:43:43.381Z,72.31
2023-03-07T22:46:11.431Z,72.37
2023-03-07T22:48:39.074Z,72.54
2023-03-07T22:51:15.034Z,72.59
2023-03-07T22:53:42.152Z,72.28
2023-03-07T22:56:19.955Z,72.34
2023-03-07T22:58:47.109Z,72.67
2023-03-07T23:01:20.944Z,72.88
2023-03-07T23:03:49.832Z,73.39
2023-03-07T23:06:18.617Z,72.71
2023-03-07T23:08:47.769Z,73.16
2023-03-07T23:11:16.011Z,73.43
2023-03-07T23:13:43.887Z,73.33
2023-03-07T23:16:15.081Z,73.85
2023-03-07T23:18:43.447Z,73.91
2023-03-07T23:21:14.870Z,74.10
2023-03-07T23:23:42.338Z,74.54
2023-03-07T23:26:09.567Z,74.42
2023-03-07T23:28:36.646Z,74.63
2023-03-07T23:31:04.238Z,74.88
2023-03-07T23:33:31.401Z,75.09
2023-03-07T23:36:01.684Z,74.77
2023-03-07T23:38:28.712Z,74.94
2023-03-07T23:40:58.008Z,74.88
2023-03-07T23:43:25.036Z,75.00
2023-03-07T23:45:52.084Z,75.25
2023-03-07T23:48:19.104Z,75.84
2023-03-07T23:50:49.334Z,75.70
2023-03-07T23:53:16.333Z,76.02
2023-03-07T23:55:43.848Z,76.07
2023-03-07T23:58:10.923Z,75.97
